Thunder radar more information blitzortung!


Radar de pluja more information rain snow radar


Visita la nostra xarxa de llocs de meteo:

Template documentation
and downloads

And another site



No particular awareness of the weather is required.    There are no Weather-warnings

Pagina Historial Weather Underground text

Diari Resum Octubre 25, 2017 Unitats:  Imperial    Mètric   Tant
« Previous Dia
SegĂźent Dia »
Diari Setmana Mensual Anual Personalitzada
  Maxima: Minima: Media:
Temperatura: 74.5 °F 51.8 °F 65.5 °F
Punt de rosada: 58.5 °F 44.1 °F 53.4 °F
Humitat: 83 % 51 % 66 %
Wind Speed: 6.9 mph 0 mph 2.3 mph
RĂ fegues de vent: 6.9 mph - -
Vent:- - SSE
Pression baro: 30.3 in 30.2 in -
Precipitacions: 0 in    
Historical Graphs
 
 
Dades de taula per Octubre 25, 2017
Temps Temperatura Punt de rosada Pression baro Vent Wind Speed RĂ fegues de vent Humitat Rainfall Rate (Hourly)
00:04 57.9 °F 45.3 °F 30.2 in Calm     63 % 0 in
00:05 53.6 °F 45.1 °F 30.2 in Calm   1 mph 73 % 0 in
00:15 53.8 °F 45 °F 30.2 in Calm     72 % 0 in
00:25 54.3 °F 45.1 °F 30.2 in West 1 mph 2 mph 71 % 0 in
00:45 54.3 °F 45.1 °F 30.2 in Calm   2 mph 71 % 0 in
00:55 54.3 °F 45.5 °F 30.2 in Calm   1 mph 72 % 0 in
01:05 54 °F 45.1 °F 30.2 in Calm     72 % 0 in
01:15 53.8 °F 45 °F 30.2 in Calm     72 % 0 in
01:25 53.2 °F 44.8 °F 30.2 in Calm     73 % 0 in
01:35 53.1 °F 44.6 °F 30.2 in Calm     73 % 0 in
01:45 52.9 °F 44.4 °F 30.2 in Calm     73 % 0 in
01:55 52.9 °F 44.4 °F 30.2 in WNW 2 mph 2 mph 73 % 0 in
02:05 52.3 °F 44.2 °F 30.2 in WSW 1 mph 2 mph 74 % 0 in
02:15 52.3 °F 44.2 °F 30.2 in SW 1 mph 2 mph 74 % 0 in
02:25 52.3 °F 44.2 °F 30.2 in SW 2 mph 3 mph 74 % 0 in
02:35 52.3 °F 44.6 °F 30.2 in Calm   1 mph 75 % 0 in
02:45 52.3 °F 44.6 °F 30.2 in Calm     75 % 0 in
02:55 52.3 °F 44.6 °F 30.2 in Calm   1 mph 75 % 0 in
03:05 52.5 °F 44.8 °F 30.2 in NW 1 mph 2 mph 75 % 0 in
03:15 52 °F 44.2 °F 30.2 in West 1 mph 2 mph 75 % 0 in
03:25 52 °F 44.2 °F 30.2 in West 1 mph 2 mph 75 % 0 in
03:35 51.8 °F 44.1 °F 30.2 in West 2 mph 2 mph 75 % 0 in
03:45 52.2 °F 44.8 °F 30.2 in Calm   2 mph 76 % 0 in
03:55 52.7 °F 45.3 °F 30.2 in WSW 1 mph 1 mph 76 % 0 in
04:05 53.2 °F 45.5 °F 30.3 in WSW 1 mph 2 mph 75 % 0 in
04:15 53.6 °F 45.9 °F 30.3 in SW 1 mph 2 mph 75 % 0 in
04:25 54.5 °F 46.8 °F 30.3 in Calm   1 mph 75 % 0 in
04:35 56.7 °F 48.6 °F 30.3 in Calm   2 mph 74 % 0 in
04:55 57.4 °F 48.4 °F 30.3 in NE 3 mph 4 mph 72 % 0 in
05:05 57.9 °F 48.6 °F 30.3 in NE 2 mph 3 mph 71 % 0 in
10:12 58.8 °F 49.1 °F 30.3 in NNE 3.5 mph 3.5 mph 70 % 0 in
10:17 59.5 °F 49.6 °F 30.3 in NNE 3.5 mph 3.5 mph 70 % 0 in
10:22 59.7 °F 49.8 °F 30.3 in ENE 2.3 mph 2.3 mph 70 % 0 in
10:24 60.1 °F 50.4 °F 30.3 in NNE 3.5 mph 3.5 mph 70 % 0 in
10:29 60.6 °F 50.4 °F 30.3 in NE 3.5 mph 3.5 mph 69 % 0 in
10:34 61.2 °F 50.9 °F 30.3 in NE 3.5 mph 3.5 mph 69 % 0 in
10:39 61.7 °F 51.1 °F 30.3 in NNE 2 mph 2 mph 68 % 0 in
10:44 61.9 °F 51.3 °F 30.3 in NE 3.5 mph 3.5 mph 68 % 0 in
10:49 61.9 °F 51.3 °F 30.3 in NW 4.6 mph 4.6 mph 68 % 0 in
10:54 62.4 °F 51.3 °F 30.3 in NE 4.6 mph 4.6 mph 67 % 0 in
10:59 62.2 °F 51.1 °F 30.3 in NNE 5.8 mph 5.8 mph 67 % 0 in
11:04 62.6 °F 51.1 °F 30.3 in ENE 4.6 mph 4.6 mph 66 % 0 in
11:09 63.3 °F 51.8 °F 30.3 in NNE 3.5 mph 3.5 mph 66 % 0 in
11:14 63.9 °F 52 °F 30.3 in ENE 3.5 mph 3.5 mph 65 % 0 in
11:19 64 °F 52 °F 30.3 in NNE 3.5 mph 3.5 mph 65 % 0 in
11:24 64.4 °F 52 °F 30.3 in ENE 2.3 mph 2.3 mph 64 % 0 in
11:29 64.9 °F 52.5 °F 30.3 in ENE 3.8 mph 3.8 mph 64 % 0 in
11:34 64.6 °F 52.2 °F 30.3 in NNW 3.5 mph 3.5 mph 64 % 0 in
11:39 65.3 °F 52.9 °F 30.3 in NNE 2.3 mph 2.3 mph 64 % 0 in
11:44 66.2 °F 52.9 °F 30.3 in NNW 1.4 mph 1.4 mph 62 % 0 in
11:49 66.9 °F 53.4 °F 30.3 in NNE 2.3 mph   62 % 0 in
11:54 67.1 °F 53.6 °F 30.3 in NW 2.3 mph 2.3 mph 62 % 0 in
11:59 67.5 °F 54 °F 30.3 in NNE 3.1 mph 3.1 mph 62 % 0 in
12:04 67.6 °F 53.8 °F 30.3 in NE 2.4 mph 2.4 mph 61 % 0 in
12:09 68.4 °F 54 °F 30.3 in SW 2.3 mph   60 % 0 in
12:14 68.4 °F 53.4 °F 30.3 in NE 2.4 mph 2.4 mph 59 % 0 in
12:19 67.8 °F 53.1 °F 30.3 in ESE 4.6 mph 4.6 mph 59 % 0 in
12:24 68.4 °F 53.1 °F 30.3 in ENE 4.6 mph 4.6 mph 58 % 0 in
12:29 68.7 °F 53.2 °F 30.3 in East 3.6 mph 3.6 mph 58 % 0 in
12:34 68.4 °F 53.1 °F 30.3 in ENE 3.8 mph 3.8 mph 58 % 0 in
12:39 68.5 °F 53.2 °F 30.3 in East 2.3 mph 2.3 mph 58 % 0 in
12:44 69.1 °F 53.8 °F 30.3 in NNE 4.6 mph 4.6 mph 58 % 0 in
12:49 69.3 °F 53.8 °F 30.3 in ENE 3.5 mph 3.5 mph 58 % 0 in
12:54 69.8 °F 54 °F 30.3 in ESE 2.3 mph 2.9 mph 57 % 0 in
12:59 69.6 °F 53.8 °F 30.3 in NE 2.9 mph 2.9 mph 57 % 0 in
13:04 69.6 °F 53.2 °F 30.3 in ENE 4.6 mph 4.6 mph 56 % 0 in
13:14 70.5 °F 53.6 °F 30.3 in ESE 3.5 mph 3.5 mph 55 % 0 in
13:19 70.5 °F 53.6 °F 30.3 in East 3.5 mph 3.5 mph 55 % 0 in
13:24 70.5 °F 53.6 °F 30.3 in NE 4.6 mph 4.6 mph 55 % 0 in
13:29 70.5 °F 53.1 °F 30.3 in NE 4.6 mph 4.6 mph 54 % 0 in
13:34 71.2 °F 53.8 °F 30.3 in ESE 2.9 mph 2.9 mph 54 % 0 in
13:39 71.2 °F 53.8 °F 30.3 in ENE 2.3 mph 2.3 mph 54 % 0 in
13:44 71.6 °F 53.6 °F 30.3 in East 3.8 mph 3.8 mph 53 % 0 in
13:54 72 °F 54.3 °F 30.3 in NNW 3.5 mph 3.5 mph 54 % 0 in
13:59 72.3 °F 54.1 °F 30.3 in SE 3.5 mph 3.5 mph 53 % 0 in
14:04 72.7 °F 54.7 °F 30.3 in WNW 2.6 mph 2.6 mph 53 % 0 in
14:09 72.5 °F 54 °F 30.2 in ESE 3.5 mph 3.5 mph 52 % 0 in
14:14 72.5 °F 54 °F 30.2 in SE 4.6 mph 4.6 mph 52 % 0 in
14:19 73 °F 54.9 °F 30.2 in East 2.6 mph 2.6 mph 53 % 0 in
14:24 72.7 °F 54 °F 30.2 in NW 3.5 mph 3.5 mph 52 % 0 in
14:29 73 °F 54.3 °F 30.2 in ESE 4.6 mph 4.6 mph 52 % 0 in
14:34 72.7 °F 54.7 °F 30.2 in East 2.4 mph 2.4 mph 53 % 0 in
14:39 73 °F 54.3 °F 30.2 in SSE 3.8 mph 3.8 mph 52 % 0 in
14:44 73.8 °F 55 °F 30.2 in ESE 3.5 mph 3.5 mph 52 % 0 in
14:49 73.8 °F 55 °F 30.2 in West 3.6 mph 3.6 mph 52 % 0 in
14:51 73.8 °F 55 °F 30.2 in WSW 3.5 mph 3.5 mph 52 % 0 in
14:56 74.3 °F 55.6 °F 30.2 in ESE 2.4 mph 2.4 mph 52 % 0 in
15:01 74.1 °F 54.9 °F 30.2 in SSE 4.6 mph 4.6 mph 51 % 0 in
15:06 74.1 °F 54.9 °F 30.2 in ESE 4.6 mph 4.6 mph 51 % 0 in
15:11 73.6 °F 54.3 °F 30.2 in ESE 4.6 mph 4.6 mph 51 % 0 in
15:16 73.6 °F 54.3 °F 30.2 in ESE 2.3 mph 2.4 mph 51 % 0 in
15:21 73.8 °F 54.5 °F 30.2 in East 3.5 mph 3.5 mph 51 % 0 in
15:31 73.9 °F 54.7 °F 30.2 in East 3.6 mph 3.6 mph 51 % 0 in
15:36 73.9 °F 54.7 °F 30.2 in East 4.6 mph 4.6 mph 51 % 0 in
15:41 73.9 °F 54.7 °F 30.3 in South 3.5 mph 3.5 mph 51 % 0 in
15:46 74.1 °F 54.9 °F 30.3 in ESE 4.6 mph 4.6 mph 51 % 0 in
15:51 73.9 °F 54.7 °F 30.3 in South 4.6 mph 4.6 mph 51 % 0 in
15:56 74.1 °F 54.9 °F 30.2 in East 3.1 mph 3.1 mph 51 % 0 in
16:01 74.5 °F 55.2 °F 30.2 in ENE 1.4 mph   51 % 0 in
16:06 74.1 °F 54.9 °F 30.2 in ESE 5.8 mph 5.8 mph 51 % 0 in
16:11 74.3 °F 55 °F 30.2 in SE 3.5 mph 3.5 mph 51 % 0 in
16:16 74.5 °F 55.2 °F 30.2 in ENE 4.6 mph 4.6 mph 51 % 0 in
16:21 73.9 °F 55.2 °F 30.2 in SW 5.8 mph 5.8 mph 52 % 0 in
16:26 74.1 °F 55.9 °F 30.2 in ENE 3.6 mph 3.6 mph 53 % 0 in
16:31 73.9 °F 55.8 °F 30.2 in ESE 5.9 mph 5.9 mph 53 % 0 in
16:36 73.6 °F 55.9 °F 30.2 in ENE 6.9 mph 6.9 mph 54 % 0 in
16:41 73.6 °F 56.5 °F 30.2 in NNE 3.5 mph 3.5 mph 55 % 0 in
16:46 73.4 °F 56.7 °F 30.2 in East 5.9 mph 5.9 mph 56 % 0 in
16:51 73 °F 56.5 °F 30.2 in SE 6.9 mph 6.9 mph 56 % 0 in
16:56 73 °F 56.8 °F 30.2 in ESE 5.8 mph 5.8 mph 57 % 0 in
17:01 72.7 °F 57 °F 30.2 in East 5.8 mph 5.8 mph 58 % 0 in
17:06 72.7 °F 57 °F 30.2 in East 5.8 mph 5.8 mph 58 % 0 in
17:11 72.5 °F 57.4 °F 30.2 in ENE 6.9 mph 6.9 mph 59 % 0 in
17:16 72.1 °F 57 °F 30.2 in ESE 5.8 mph 5.8 mph 59 % 0 in
17:21 72 °F 57.4 °F 30.2 in ESE 6.2 mph 6.2 mph 60 % 0 in
17:26 72 °F 57.7 °F 30.2 in ESE 5.8 mph 5.8 mph 61 % 0 in
17:31 72 °F 57.7 °F 30.2 in ESE 5.8 mph 5.8 mph 61 % 0 in
17:36 71.8 °F 57.6 °F 30.2 in SE 5.8 mph 5.8 mph 61 % 0 in
17:41 71.8 °F 58.1 °F 30.2 in SE 3.6 mph 3.6 mph 62 % 0 in
17:46 71.8 °F 58.1 °F 30.2 in East 4.6 mph 4.6 mph 62 % 0 in
17:51 71.6 °F 58.3 °F 30.2 in East 3.8 mph 3.8 mph 63 % 0 in
17:56 71.6 °F 58.3 °F 30.2 in ESE 4.9 mph 4.9 mph 63 % 0 in
18:01 71.6 °F 58.3 °F 30.2 in SW 1.4 mph 1.4 mph 63 % 0 in
18:06 72.1 °F 58.5 °F 30.2 in West 2.3 mph   62 % 0 in
18:11 72.1 °F 58.5 °F 30.2 in WSW 1.2 mph 1.4 mph 62 % 0 in
18:21 72.1 °F 58.5 °F 30.2 in NW 2.3 mph 2.3 mph 62 % 0 in
18:26 71.8 °F 58.1 °F 30.2 in South 2.3 mph 2.3 mph 62 % 0 in
18:31 71.4 °F 57.7 °F 30.2 in NW 2.3 mph 2.3 mph 62 % 0 in
18:36 70.7 °F 57.9 °F 30.2 in NNE 2.3 mph   64 % 0 in
18:41 70.3 °F 57.6 °F 30.2 in NNE 1.6 mph 1.6 mph 64 % 0 in
18:46 70 °F 57.7 °F 30.2 in NNE 2.4 mph   65 % 0 in
18:51 69.4 °F 57.2 °F 30.2 in SW 3.5 mph 3.5 mph 65 % 0 in
18:56 69.4 °F 57.2 °F 30.2 in West 1.2 mph   65 % 0 in
19:01 69.1 °F 56.8 °F 30.2 in West 2.4 mph 2.4 mph 65 % 0 in
19:06 68.7 °F 56.5 °F 30.2 in SW 2.3 mph 2.3 mph 65 % 0 in
19:11 68.5 °F 56.3 °F 30.2 in WSW 1.4 mph   65 % 0 in
19:16 68.2 °F 55.9 °F 30.2 in WSW 2.3 mph 2.3 mph 65 % 0 in
19:21 67.8 °F 56.5 °F 30.2 in West 1.6 mph 1.6 mph 67 % 0 in
19:26 67.6 °F 56.3 °F 30.2 in WSW 2.6 mph 2.6 mph 67 % 0 in
19:31 67.5 °F 56.1 °F 30.2 in WSW 2.3 mph 2.3 mph 67 % 0 in
19:36 67.1 °F 56.1 °F 30.2 in NW 1.2 mph   68 % 0 in
19:41 66.9 °F 56.5 °F 30.3 in Calm     69 % 0 in
19:46 66.6 °F 56.5 °F 30.3 in Calm     70 % 0 in
19:51 66.2 °F 56.1 °F 30.3 in Calm     70 % 0 in
19:56 66 °F 56.7 °F 30.3 in Calm     72 % 0 in
20:01 65.8 °F 56.7 °F 30.3 in WSW 2.2 mph   72 % 0 in
20:06 65.7 °F 56.5 °F 30.3 in WSW 1.4 mph 1.4 mph 72 % 0 in
20:11 65.5 °F 56.1 °F 30.3 in WSW 2.3 mph 2.3 mph 72 % 0 in
20:16 65.3 °F 56.5 °F 30.3 in Calm     73 % 0 in
20:21 65.1 °F 56.7 °F 30.3 in NW 1.2 mph 1.2 mph 74 % 0 in
20:26 64.9 °F 56.5 °F 30.3 in NW 1.2 mph   74 % 0 in
20:31 64.9 °F 56.5 °F 30.3 in Calm     74 % 0 in
20:36 64.8 °F 56.3 °F 30.3 in Calm     74 % 0 in
20:41 64.6 °F 56.1 °F 30.3 in Calm     74 % 0 in
20:46 64.6 °F 56.5 °F 30.3 in Calm     75 % 0 in
20:51 64.4 °F 55.9 °F 30.3 in Calm     74 % 0 in
20:56 64.2 °F 56.1 °F 30.3 in Calm     75 % 0 in
21:01 64.2 °F 56.1 °F 30.3 in Calm     75 % 0 in
21:06 63.9 °F 56.1 °F 30.3 in NW 1.2 mph 1.2 mph 76 % 0 in
21:11 63.7 °F 55.9 °F 30.3 in Calm     76 % 0 in
21:16 63.5 °F 55.4 °F 30.3 in NW 1.2 mph   75 % 0 in
21:21 63.3 °F 55.6 °F 30.3 in Calm     76 % 0 in
21:26 63.3 °F 55.6 °F 30.3 in Calm     76 % 0 in
21:31 63.1 °F 55.8 °F 30.3 in Calm     77 % 0 in
21:36 63 °F 55.6 °F 30.3 in Calm     77 % 0 in
21:41 63 °F 55.6 °F 30.3 in Calm     77 % 0 in
21:46 62.8 °F 55.6 °F 30.3 in Calm     77 % 0 in
21:51 62.6 °F 55.2 °F 30.3 in Calm     77 % 0 in
21:56 62.4 °F 55.8 °F 30.3 in Calm     79 % 0 in
22:01 62.2 °F 55.6 °F 30.3 in Calm     79 % 0 in
22:06 62.2 °F 55.6 °F 30.3 in Calm     79 % 0 in
22:11 62.2 °F 55.6 °F 30.3 in Calm     79 % 0 in
22:16 62.2 °F 55.6 °F 30.3 in Calm     79 % 0 in
22:21 62.1 °F 55.8 °F 30.3 in Calm     80 % 0 in
22:26 61.9 °F 55.2 °F 30.3 in Calm     79 % 0 in
22:31 61.9 °F 55.6 °F 30.3 in NW 1.2 mph   80 % 0 in
22:36 61.9 °F 55.6 °F 30.3 in WNW 2.3 mph 2.3 mph 80 % 0 in
22:41 61.9 °F 55.6 °F 30.3 in WNW 1.2 mph   80 % 0 in
23:08 61 °F 55.4 °F 30.3 in Calm     82 % 0 in
23:13 60.8 °F 55.2 °F 30.3 in Calm     82 % 0 in
23:18 60.6 °F 55 °F 30.3 in Calm     82 % 0 in
23:23 60.6 °F 55 °F 30.3 in Calm     82 % 0 in
23:28 60.4 °F 54.9 °F 30.3 in Calm     82 % 0 in
23:33 60.3 °F 54.7 °F 30.3 in Calm     82 % 0 in
23:38 60.1 °F 54.9 °F 30.3 in Calm     83 % 0 in
23:43 60.1 °F 54.9 °F 30.3 in Calm     83 % 0 in
23:48 59.9 °F 54.7 °F 30.3 in Calm     83 % 0 in
23:53 59.9 °F 54.7 °F 30.3 in Calm     83 % 0 in
23:58 59.5 °F 54.3 °F 30.3 in Calm     83 % 0 in
Meteo Sesrovires
Elogis d' Weather Underground - 3.5 mb

Guio original per  Jim McMurry - jmcmurry@mwt.net Adaptat per a la plantilla per  Wim van der Kuil - Leuven-Template.eu

Trobareu la nostra informacio del temps tambe a:

Weather Underground

AWEKAS